sensor_id;sensor_type;location;lat;lon;timestamp;pressure;altitude;pressure_sealevel;temperature;humidity
72370;BME280;60343;-32.030;115.880;2023-04-28T00:00:57;103111.28;;;13.78;66.95
72370;BME280;60343;-32.030;115.880;2023-04-28T00:03:37;103123.16;;;13.75;67.17
72370;BME280;60343;-32.030;115.880;2023-04-28T00:06:12;103114.94;;;13.77;67.41
72370;BME280;60343;-32.030;115.880;2023-04-28T00:08:46;103118.97;;;13.92;67.23
72370;BME280;60343;-32.030;115.880;2023-04-28T00:11:21;103125.13;;;14.13;66.74
72370;BME280;60343;-32.030;115.880;2023-04-28T00:13:55;103128.00;;;14.69;65.28
72370;BME280;60343;-32.030;115.880;2023-04-28T00:16:30;103126.66;;;15.21;62.55
72370;BME280;60343;-32.030;115.880;2023-04-28T00:19:10;103130.59;;;15.83;61.84
72370;BME280;60343;-32.030;115.880;2023-04-28T00:21:44;103121.25;;;16.22;59.79
72370;BME280;60343;-32.030;115.880;2023-04-28T00:24:18;103122.19;;;16.49;58.08
72370;BME280;60343;-32.030;115.880;2023-04-28T00:26:53;103126.94;;;16.55;57.83
72370;BME280;60343;-32.030;115.880;2023-04-28T00:29:29;103133.72;;;16.68;56.47
72370;BME280;60343;-32.030;115.880;2023-04-28T00:32:03;103133.16;;;16.65;57.10
72370;BME280;60343;-32.030;115.880;2023-04-28T00:34:43;103128.22;;;16.78;56.48
72370;BME280;60343;-32.030;115.880;2023-04-28T00:37:18;103132.44;;;16.81;54.93
72370;BME280;60343;-32.030;115.880;2023-04-28T00:39:55;103134.41;;;16.70;55.30
72370;BME280;60343;-32.030;115.880;2023-04-28T00:42:30;103136.09;;;16.89;56.19
72370;BME280;60343;-32.030;115.880;2023-04-28T00:45:04;103133.28;;;16.99;55.02
72370;BME280;60343;-32.030;115.880;2023-04-28T00:47:39;103135.78;;;17.44;53.59
72370;BME280;60343;-32.030;115.880;2023-04-28T00:50:21;103139.81;;;18.08;52.38
72370;BME280;60343;-32.030;115.880;2023-04-28T00:52:56;103133.50;;;18.57;50.64
72370;BME280;60343;-32.030;115.880;2023-04-28T00:55:31;103129.44;;;18.94;48.67
72370;BME280;60343;-32.030;115.880;2023-04-28T00:58:07;103131.44;;;19.24;47.22
72370;BME280;60343;-32.030;115.880;2023-04-28T01:00:42;103123.59;;;19.53;46.80
72370;BME280;60343;-32.030;115.880;2023-04-28T01:03:17;103126.22;;;19.78;45.80
72370;BME280;60343;-32.030;115.880;2023-04-28T01:05:57;103122.78;;;19.84;45.18
72370;BME280;60343;-32.030;115.880;2023-04-28T01:08:33;103119.84;;;19.93;46.11
72370;BME280;60343;-32.030;115.880;2023-04-28T01:11:08;103119.63;;;20.03;45.19
72370;BME280;60343;-32.030;115.880;2023-04-28T01:13:43;103120.16;;;20.29;44.60
72370;BME280;60343;-32.030;115.880;2023-04-28T01:16:18;103110.59;;;20.41;43.86
72370;BME280;60343;-32.030;115.880;2023-04-28T01:18:53;103109.38;;;20.67;44.02
72370;BME280;60343;-32.030;115.880;2023-04-28T01:21:34;103111.50;;;20.94;43.39
72370;BME280;60343;-32.030;115.880;2023-04-28T01:24:14;103108.22;;;21.13;43.04
72370;BME280;60343;-32.030;115.880;2023-04-28T01:26:49;103112.34;;;21.32;43.10
72370;BME280;60343;-32.030;115.880;2023-04-28T01:29:24;103115.81;;;21.55;41.41
72370;BME280;60343;-32.030;115.880;2023-04-28T01:31:58;103118.44;;;21.49;41.38
72370;BME280;60343;-32.030;115.880;2023-04-28T01:34:33;103111.38;;;21.25;41.29
72370;BME280;60343;-32.030;115.880;2023-04-28T01:37:07;103117.00;;;21.23;41.84
72370;BME280;60343;-32.030;115.880;2023-04-28T01:39:47;103120.81;;;21.37;40.83
72370;BME280;60343;-32.030;115.880;2023-04-28T01:42:21;103114.97;;;21.55;41.23
72370;BME280;60343;-32.030;115.880;2023-04-28T01:44:56;103105.84;;;21.77;41.10
72370;BME280;60343;-32.030;115.880;2023-04-28T01:47:31;103099.25;;;21.71;39.98
72370;BME280;60343;-32.030;115.880;2023-04-28T01:50:06;103102.53;;;21.81;39.92
72370;BME280;60343;-32.030;115.880;2023-04-28T01:52:41;103104.22;;;21.68;39.47
72370;BME280;60343;-32.030;115.880;2023-04-28T01:55:21;103108.94;;;21.74;40.64
72370;BME280;60343;-32.030;115.880;2023-04-28T01:57:56;103103.84;;;22.00;40.17
72370;BME280;60343;-32.030;115.880;2023-04-28T02:00:31;103102.09;;;22.14;39.54
72370;BME280;60343;-32.030;115.880;2023-04-28T02:03:05;103094.13;;;22.34;39.11
72370;BME280;60343;-32.030;115.880;2023-04-28T02:05:39;103094.66;;;22.22;38.02
72370;BME280;60343;-32.030;115.880;2023-04-28T02:08:14;103089.50;;;22.55;37.36
72370;BME280;60343;-32.030;115.880;2023-04-28T02:10:54;103090.28;;;22.49;36.14
72370;BME280;60343;-32.030;115.880;2023-04-28T02:13:30;103092.38;;;22.47;35.91
72370;BME280;60343;-32.030;115.880;2023-04-28T02:16:05;103101.47;;;22.54;35.76
72370;BME280;60343;-32.030;115.880;2023-04-28T02:18:39;103097.69;;;22.55;35.77
72370;BME280;60343;-32.030;115.880;2023-04-28T02:21:14;103092.88;;;22.15;36.36
72370;BME280;60343;-32.030;115.880;2023-04-28T02:23:49;103091.53;;;22.25;36.90
72370;BME280;60343;-32.030;115.880;2023-04-28T02:26:28;103094.25;;;22.25;37.18
72370;BME280;60343;-32.030;115.880;2023-04-28T02:29:03;103091.19;;;22.35;37.44
72370;BME280;60343;-32.030;115.880;2023-04-28T02:31:39;103089.97;;;22.38;37.47
72370;BME280;60343;-32.030;115.880;2023-04-28T02:34:14;103098.47;;;21.92;38.17
72370;BME280;60343;-32.030;115.880;2023-04-28T02:36:49;103095.84;;;21.99;38.82
72370;BME280;60343;-32.030;115.880;2023-04-28T02:39:24;103097.72;;;21.83;39.52
72370;BME280;60343;-32.030;115.880;2023-04-28T02:42:05;103095.69;;;21.71;39.69
72370;BME280;60343;-32.030;115.880;2023-04-28T02:44:39;103093.97;;;21.84;39.77
72370;BME280;60343;-32.030;115.880;2023-04-28T02:47:14;103089.47;;;21.77;39.73
72370;BME280;60343;-32.030;115.880;2023-04-28T02:49:48;103084.88;;;21.63;39.30
72370;BME280;60343;-32.030;115.880;2023-04-28T02:52:23;103087.72;;;21.40;40.47
72370;BME280;60343;-32.030;115.880;2023-04-28T02:54:57;103086.03;;;21.24;39.90
72370;BME280;60343;-32.030;115.880;2023-04-28T02:57:37;103077.22;;;21.22;40.86
72370;BME280;60343;-32.030;115.880;2023-04-28T03:00:13;103071.69;;;21.08;41.01
72370;BME280;60343;-32.030;115.880;2023-04-28T03:02:47;103062.13;;;20.97;39.97
72370;BME280;60343;-32.030;115.880;2023-04-28T03:05:22;103056.91;;;20.73;40.79
72370;BME280;60343;-32.030;115.880;2023-04-28T03:07:57;103056.75;;;20.89;40.41
72370;BME280;60343;-32.030;115.880;2023-04-28T03:10:31;103058.28;;;21.06;40.18
72370;BME280;60343;-32.030;115.880;2023-04-28T03:13:11;103053.28;;;21.10;39.63
72370;BME280;60343;-32.030;115.880;2023-04-28T03:15:46;103047.59;;;21.19;40.08
72370;BME280;60343;-32.030;115.880;2023-04-28T03:18:20;103043.47;;;21.23;39.19
72370;BME280;60343;-32.030;115.880;2023-04-28T03:20:55;103045.06;;;21.47;37.81
72370;BME280;60343;-32.030;115.880;2023-04-28T03:23:29;103045.94;;;21.69;38.63
72370;BME280;60343;-32.030;115.880;2023-04-28T03:26:04;103040.31;;;21.70;37.35
72370;BME280;60343;-32.030;115.880;2023-04-28T03:28:44;103033.59;;;21.88;37.51
72370;BME280;60343;-32.030;115.880;2023-04-28T03:31:18;103028.34;;;22.29;37.98
72370;BME280;60343;-32.030;115.880;2023-04-28T03:33:53;103029.03;;;22.31;35.65
72370;BME280;60343;-32.030;115.880;2023-04-28T03:36:27;103024.31;;;22.46;37.32
72370;BME280;60343;-32.030;115.880;2023-04-28T03:39:02;103024.31;;;22.46;36.91
72370;BME280;60343;-32.030;115.880;2023-04-28T03:41:37;103006.41;;;22.64;37.01
72370;BME280;60343;-32.030;115.880;2023-04-28T03:44:17;103007.78;;;22.54;36.05
72370;BME280;60343;-32.030;115.880;2023-04-28T03:46:51;103006.00;;;22.18;36.41
72370;BME280;60343;-32.030;115.880;2023-04-28T03:49:26;102993.78;;;22.08;36.61
72370;BME280;60343;-32.030;115.880;2023-04-28T03:52:00;102993.81;;;22.14;37.60
72370;BME280;60343;-32.030;115.880;2023-04-28T03:54:35;102992.63;;;22.23;36.93
72370;BME280;60343;-32.030;115.880;2023-04-28T03:57:09;102983.66;;;22.08;36.97
72370;BME280;60343;-32.030;115.880;2023-04-28T03:59:49;102979.13;;;21.94;38.11
72370;BME280;60343;-32.030;115.880;2023-04-28T04:02:24;102979.63;;;21.98;37.82
72370;BME280;60343;-32.030;115.880;2023-04-28T04:04:58;102975.19;;;21.97;37.57
72370;BME280;60343;-32.030;115.880;2023-04-28T04:07:33;102964.72;;;21.64;38.97
72370;BME280;60343;-32.030;115.880;2023-04-28T04:10:08;102954.28;;;21.68;39.81
72370;BME280;60343;-32.030;115.880;2023-04-28T04:12:43;102964.16;;;21.90;38.57
72370;BME280;60343;-32.030;115.880;2023-04-28T04:15:23;102961.19;;;21.85;37.82
72370;BME280;60343;-32.030;115.880;2023-04-28T04:17:58;102953.94;;;21.92;36.13
72370;BME280;60343;-32.030;115.880;2023-04-28T04:20:33;102950.34;;;21.92;37.63
72370;BME280;60343;-32.030;115.880;2023-04-28T04:23:07;102949.03;;;22.02;37.03
72370;BME280;60343;-32.030;115.880;2023-04-28T04:25:42;102939.50;;;21.98;38.08
72370;BME280;60343;-32.030;115.880;2023-04-28T04:28:16;102943.13;;;22.27;38.00
72370;BME280;60343;-32.030;115.880;2023-04-28T04:30:56;102933.91;;;22.28;37.63
72370;BME280;60343;-32.030;115.880;2023-04-28T04:33:31;102923.56;;;22.51;37.10
72370;BME280;60343;-32.030;115.880;2023-04-28T04:36:06;102927.34;;;22.50;36.59
72370;BME280;60343;-32.030;115.880;2023-04-28T04:38:41;102929.50;;;22.27;36.79
72370;BME280;60343;-32.030;115.880;2023-04-28T04:41:15;102930.06;;;21.79;38.36
72370;BME280;60343;-32.030;115.880;2023-04-28T04:43:49;102919.25;;;21.65;39.00
72370;BME280;60343;-32.030;115.880;2023-04-28T04:46:30;102910.16;;;21.79;37.78
72370;BME280;60343;-32.030;115.880;2023-04-28T04:49:04;102907.03;;;22.03;37.94
72370;BME280;60343;-32.030;115.880;2023-04-28T04:51:38;102899.81;;;22.17;38.86
72370;BME280;60343;-32.030;115.880;2023-04-28T04:54:13;102911.69;;;22.31;38.63
72370;BME280;60343;-32.030;115.880;2023-04-28T04:56:48;102894.81;;;22.20;37.30
72370;BME280;60343;-32.030;115.880;2023-04-28T04:59:22;102895.88;;;21.98;38.61
72370;BME280;60343;-32.030;115.880;2023-04-28T05:02:02;102893.41;;;21.82;39.11
72370;BME280;60343;-32.030;115.880;2023-04-28T05:04:37;102880.28;;;21.92;37.94
72370;BME280;60343;-32.030;115.880;2023-04-28T05:07:12;102869.91;;;21.81;38.93
72370;BME280;60343;-32.030;115.880;2023-04-28T05:09:46;102866.97;;;22.04;38.05
72370;BME280;60343;-32.030;115.880;2023-04-28T05:12:21;102861.03;;;22.21;37.80
72370;BME280;60343;-32.030;115.880;2023-04-28T05:14:55;102856.84;;;22.25;38.01
72370;BME280;60343;-32.030;115.880;2023-04-28T05:17:35;102850.19;;;22.35;37.36
72370;BME280;60343;-32.030;115.880;2023-04-28T05:20:10;102839.38;;;22.20;38.20
72370;BME280;60343;-32.030;115.880;2023-04-28T05:22:45;102836.03;;;22.52;36.05
72370;BME280;60343;-32.030;115.880;2023-04-28T05:25:19;102836.03;;;22.59;35.88
72370;BME280;60343;-32.030;115.880;2023-04-28T05:27:54;102829.78;;;22.65;35.52
72370;BME280;60343;-32.030;115.880;2023-04-28T05:30:31;102833.81;;;22.35;36.52
72370;BME280;60343;-32.030;115.880;2023-04-28T05:33:11;102821.50;;;22.45;36.28
72370;BME280;60343;-32.030;115.880;2023-04-28T05:35:46;102824.53;;;22.29;37.35
72370;BME280;60343;-32.030;115.880;2023-04-28T05:38:21;102820.50;;;22.59;36.27
72370;BME280;60343;-32.030;115.880;2023-04-28T05:40:55;102813.81;;;22.68;36.55
72370;BME280;60343;-32.030;115.880;2023-04-28T05:43:29;102806.13;;;22.79;35.90
72370;BME280;60343;-32.030;115.880;2023-04-28T05:46:04;102799.28;;;22.55;36.45
72370;BME280;60343;-32.030;115.880;2023-04-28T05:48:45;102784.19;;;22.65;36.28
72370;BME280;60343;-32.030;115.880;2023-04-28T05:51:19;102783.44;;;22.72;36.45
72370;BME280;60343;-32.030;115.880;2023-04-28T05:53:54;102783.13;;;22.60;37.22
72370;BME280;60343;-32.030;115.880;2023-04-28T05:56:29;102781.00;;;23.09;36.35
72370;BME280;60343;-32.030;115.880;2023-04-28T05:59:04;102782.72;;;23.24;35.75
72370;BME280;60343;-32.030;115.880;2023-04-28T06:01:38;102775.50;;;22.96;37.53
72370;BME280;60343;-32.030;115.880;2023-04-28T06:04:18;102773.19;;;22.87;36.43
72370;BME280;60343;-32.030;115.880;2023-04-28T06:06:52;102775.13;;;23.13;35.28
72370;BME280;60343;-32.030;115.880;2023-04-28T06:09:27;102764.41;;;23.18;34.96
72370;BME280;60343;-32.030;115.880;2023-04-28T06:12:02;102761.69;;;23.18;34.99
72370;BME280;60343;-32.030;115.880;2023-04-28T06:14:36;102753.47;;;23.11;36.67
72370;BME280;60343;-32.030;115.880;2023-04-28T06:17:11;102764.00;;;23.21;34.99
72370;BME280;60343;-32.030;115.880;2023-04-28T06:19:51;102760.91;;;23.63;35.53
72370;BME280;60343;-32.030;115.880;2023-04-28T06:22:25;102753.75;;;23.62;34.90
72370;BME280;60343;-32.030;115.880;2023-04-28T06:25:00;102752.03;;;23.55;35.43
72370;BME280;60343;-32.030;115.880;2023-04-28T06:27:34;102757.72;;;23.60;34.79
72370;BME280;60343;-32.030;115.880;2023-04-28T06:30:09;102750.97;;;23.36;35.17
72370;BME280;60343;-32.030;115.880;2023-04-28T06:32:43;102748.25;;;23.36;35.67
72370;BME280;60343;-32.030;115.880;2023-04-28T06:35:23;102751.38;;;23.20;36.33
72370;BME280;60343;-32.030;115.880;2023-04-28T06:37:58;102744.84;;;23.07;35.52
72370;BME280;60343;-32.030;115.880;2023-04-28T06:40:33;102744.44;;;23.30;35.30
72370;BME280;60343;-32.030;115.880;2023-04-28T06:43:07;102746.34;;;23.17;35.14
72370;BME280;60343;-32.030;115.880;2023-04-28T06:45:41;102750.75;;;23.24;35.31
72370;BME280;60343;-32.030;115.880;2023-04-28T06:48:16;102750.91;;;22.83;35.87
72370;BME280;60343;-32.030;115.880;2023-04-28T06:50:58;102743.34;;;22.92;35.79
72370;BME280;60343;-32.030;115.880;2023-04-28T06:53:32;102736.41;;;22.89;34.91
72370;BME280;60343;-32.030;115.880;2023-04-28T06:56:07;102737.09;;;22.50;36.64
72370;BME280;60343;-32.030;115.880;2023-04-28T06:58:42;102738.50;;;22.94;36.41
72370;BME280;60343;-32.030;115.880;2023-04-28T07:01:16;102739.34;;;22.81;36.83
72370;BME280;60343;-32.030;115.880;2023-04-28T07:03:51;102728.75;;;22.65;36.96
72370;BME280;60343;-32.030;115.880;2023-04-28T07:06:31;102738.50;;;22.81;36.66
72370;BME280;60343;-32.030;115.880;2023-04-28T07:09:05;102730.50;;;22.73;36.50
72370;BME280;60343;-32.030;115.880;2023-04-28T07:11:41;102729.06;;;22.96;36.46
72370;BME280;60343;-32.030;115.880;2023-04-28T07:14:15;102733.06;;;22.87;36.73
72370;BME280;60343;-32.030;115.880;2023-04-28T07:16:49;102729.69;;;22.92;36.30
72370;BME280;60343;-32.030;115.880;2023-04-28T07:19:24;102732.50;;;22.51;37.47
72370;BME280;60343;-32.030;115.880;2023-04-28T07:22:04;102740.88;;;22.43;37.62
72370;BME280;60343;-32.030;115.880;2023-04-28T07:24:38;102727.19;;;22.36;36.77
72370;BME280;60343;-32.030;115.880;2023-04-28T07:27:13;102740.31;;;22.19;38.25
72370;BME280;60343;-32.030;115.880;2023-04-28T07:29:48;102733.91;;;22.40;37.61
72370;BME280;60343;-32.030;115.880;2023-04-28T07:32:22;102735.66;;;22.61;37.03
72370;BME280;60343;-32.030;115.880;2023-04-28T07:34:57;102736.84;;;22.39;37.37
72370;BME280;60343;-32.030;115.880;2023-04-28T07:37:37;102747.41;;;22.55;36.89
72370;BME280;60343;-32.030;115.880;2023-04-28T07:40:11;102743.53;;;22.30;37.76
72370;BME280;60343;-32.030;115.880;2023-04-28T07:42:46;102743.97;;;21.99;37.67
72370;BME280;60343;-32.030;115.880;2023-04-28T07:45:21;102754.38;;;21.89;38.58
72370;BME280;60343;-32.030;115.880;2023-04-28T07:47:55;102742.19;;;22.12;37.82
72370;BME280;60343;-32.030;115.880;2023-04-28T07:50:31;102746.78;;;21.84;38.50
72370;BME280;60343;-32.030;115.880;2023-04-28T07:53:11;102742.63;;;21.60;38.23
72370;BME280;60343;-32.030;115.880;2023-04-28T07:55:46;102738.03;;;21.61;38.92
72370;BME280;60343;-32.030;115.880;2023-04-28T07:58:20;102731.41;;;21.42;39.33
72370;BME280;60343;-32.030;115.880;2023-04-28T08:00:54;102727.31;;;21.31;39.94
72370;BME280;60343;-32.030;115.880;2023-04-28T08:03:29;102726.22;;;21.26;40.01
72370;BME280;60343;-32.030;115.880;2023-04-28T08:06:04;102731.25;;;21.29;39.67
72370;BME280;60343;-32.030;115.880;2023-04-28T08:08:44;102737.78;;;21.13;40.59
72370;BME280;60343;-32.030;115.880;2023-04-28T08:11:18;102742.09;;;21.01;40.39
72370;BME280;60343;-32.030;115.880;2023-04-28T08:13:53;102749.50;;;21.07;40.07
72370;BME280;60343;-32.030;115.880;2023-04-28T08:16:30;102740.56;;;20.98;40.28
72370;BME280;60343;-32.030;115.880;2023-04-28T08:19:07;102739.75;;;20.77;41.15
72370;BME280;60343;-32.030;115.880;2023-04-28T08:21:42;102743.13;;;20.64;40.71
72370;BME280;60343;-32.030;115.880;2023-04-28T08:24:22;102744.09;;;20.57;41.02
72370;BME280;60343;-32.030;115.880;2023-04-28T08:26:57;102746.63;;;20.58;40.48
72370;BME280;60343;-32.030;115.880;2023-04-28T08:29:31;102741.75;;;20.53;40.36
72370;BME280;60343;-32.030;115.880;2023-04-28T08:32:06;102749.63;;;20.48;41.21
72370;BME280;60343;-32.030;115.880;2023-04-28T08:34:41;102744.59;;;20.45;40.36
72370;BME280;60343;-32.030;115.880;2023-04-28T08:37:15;102739.81;;;20.33;41.88
72370;BME280;60343;-32.030;115.880;2023-04-28T08:39:55;102746.81;;;20.27;41.75
72370;BME280;60343;-32.030;115.880;2023-04-28T08:42:36;102741.22;;;20.14;41.71
72370;BME280;60343;-32.030;115.880;2023-04-28T08:45:14;102737.38;;;19.94;42.65
72370;BME280;60343;-32.030;115.880;2023-04-28T08:47:49;102738.94;;;20.03;42.66
72370;BME280;60343;-32.030;115.880;2023-04-28T08:50:26;102742.81;;;20.08;41.97
72370;BME280;60343;-32.030;115.880;2023-04-28T08:53:03;102733.91;;;20.00;42.78
72370;BME280;60343;-32.030;115.880;2023-04-28T08:55:44;102733.72;;;20.01;42.23
72370;BME280;60343;-32.030;115.880;2023-04-28T08:58:19;102736.63;;;19.85;42.58
72370;BME280;60343;-32.030;115.880;2023-04-28T09:00:55;102743.25;;;19.83;42.73
72370;BME280;60343;-32.030;115.880;2023-04-28T09:03:31;102733.88;;;19.70;43.02
72370;BME280;60343;-32.030;115.880;2023-04-28T09:06:05;102735.47;;;19.65;42.59
72370;BME280;60343;-32.030;115.880;2023-04-28T09:08:40;102734.53;;;19.35;43.79
72370;BME280;60343;-32.030;115.880;2023-04-28T09:11:20;102742.25;;;19.23;44.23
72370;BME280;60343;-32.030;115.880;2023-04-28T09:14:11;102744.78;;;19.02;44.60
72370;BME280;60343;-32.030;115.880;2023-04-28T09:16:46;102742.38;;;19.07;44.67
72370;BME280;60343;-32.030;115.880;2023-04-28T09:19:21;102738.50;;;19.02;44.61
72370;BME280;60343;-32.030;115.880;2023-04-28T09:21:56;102751.44;;;19.00;44.55
72370;BME280;60343;-32.030;115.880;2023-04-28T09:24:31;102752.22;;;18.85;44.94
72370;BME280;60343;-32.030;115.880;2023-04-28T09:27:11;102750.25;;;18.71;45.74
72370;BME280;60343;-32.030;115.880;2023-04-28T09:29:52;102753.06;;;18.55;46.39
72370;BME280;60343;-32.030;115.880;2023-04-28T09:32:27;102755.38;;;18.66;45.77
72370;BME280;60343;-32.030;115.880;2023-04-28T09:35:02;102759.66;;;18.53;45.83
72370;BME280;60343;-32.030;115.880;2023-04-28T09:37:37;102759.91;;;18.35;46.49
72370;BME280;60343;-32.030;115.880;2023-04-28T09:40:12;102762.47;;;18.28;46.78
72370;BME280;60343;-32.030;115.880;2023-04-28T09:42:52;102767.75;;;18.22;47.19
72370;BME280;60343;-32.030;115.880;2023-04-28T09:45:39;102761.72;;;18.04;47.42
72370;BME280;60343;-32.030;115.880;2023-04-28T09:48:14;102765.13;;;17.81;48.38
72370;BME280;60343;-32.030;115.880;2023-04-28T09:50:49;102771.41;;;17.66;49.66
72370;BME280;60343;-32.030;115.880;2023-04-28T09:53:24;102771.41;;;17.66;48.94
72370;BME280;60343;-32.030;115.880;2023-04-28T09:55:59;102774.63;;;17.61;49.07
72370;BME280;60343;-32.030;115.880;2023-04-28T09:58:40;102778.50;;;17.50;49.12
72370;BME280;60343;-32.030;115.880;2023-04-28T10:01:17;102785.59;;;17.35;49.80
72370;BME280;60343;-32.030;115.880;2023-04-28T10:03:52;102783.56;;;17.21;50.22
72370;BME280;60343;-32.030;115.880;2023-04-28T10:06:28;102789.84;;;17.22;50.57
72370;BME280;60343;-32.030;115.880;2023-04-28T10:09:03;102794.94;;;17.25;49.81
72370;BME280;60343;-32.030;115.880;2023-04-28T10:11:40;102792.22;;;17.33;49.86
72370;BME280;60343;-32.030;115.880;2023-04-28T10:14:21;102800.16;;;17.10;50.79
72370;BME280;60343;-32.030;115.880;2023-04-28T10:16:57;102803.53;;;17.04;51.04
72370;BME280;60343;-32.030;115.880;2023-04-28T10:19:32;102801.97;;;16.93;51.43
72370;BME280;60343;-32.030;115.880;2023-04-28T10:22:27;102810.75;;;16.87;51.67
72370;BME280;60343;-32.030;115.880;2023-04-28T10:25:19;102811.75;;;16.78;51.82
72370;BME280;60343;-32.030;115.880;2023-04-28T10:27:59;102820.84;;;16.69;52.24
72370;BME280;60343;-32.030;115.880;2023-04-28T10:30:39;102825.13;;;16.54;52.67
72370;BME280;60343;-32.030;115.880;2023-04-28T10:33:24;102820.34;;;16.40;52.92
72370;BME280;60343;-32.030;115.880;2023-04-28T10:36:01;102833.66;;;16.33;52.95
72370;BME280;60343;-32.030;115.880;2023-04-28T10:39:06;102837.09;;;16.17;53.90
72370;BME280;60343;-32.030;115.880;2023-04-28T10:41:34;102839.09;;;16.15;53.85
72370;BME280;60343;-32.030;115.880;2023-04-28T10:44:43;102842.13;;;16.12;53.89
72370;BME280;60343;-32.030;115.880;2023-04-28T10:47:23;102846.31;;;16.07;54.34
72370;BME280;60343;-32.030;115.880;2023-04-28T10:50:08;102846.47;;;16.05;54.99
72370;BME280;60343;-32.030;115.880;2023-04-28T10:52:49;102852.53;;;15.99;54.66
72370;BME280;60343;-32.030;115.880;2023-04-28T10:55:29;102849.38;;;15.86;55.02
72370;BME280;60343;-32.030;115.880;2023-04-28T10:58:32;102858.94;;;15.80;55.30
72370;BME280;60343;-32.030;115.880;2023-04-28T11:04:06;102866.31;;;15.53;56.16
72370;BME280;60343;-32.030;115.880;2023-04-28T11:06:42;102862.78;;;15.42;56.98
72370;BME280;60343;-32.030;115.880;2023-04-28T11:12:19;102865.31;;;15.26;57.56
72370;BME280;60343;-32.030;115.880;2023-04-28T11:14:54;102869.69;;;15.10;58.18
72370;BME280;60343;-32.030;115.880;2023-04-28T11:17:40;102873.59;;;14.97;58.77
72370;BME280;60343;-32.030;115.880;2023-04-28T11:20:21;102868.88;;;14.82;58.72
72370;BME280;60343;-32.030;115.880;2023-04-28T11:22:56;102869.59;;;14.74;59.01
72370;BME280;60343;-32.030;115.880;2023-04-28T11:25:54;102877.44;;;14.68;59.41
72370;BME280;60343;-32.030;115.880;2023-04-28T11:28:28;102871.94;;;14.59;59.70
72370;BME280;60343;-32.030;115.880;2023-04-28T11:31:11;102877.94;;;14.81;59.33
72370;BME280;60343;-32.030;115.880;2023-04-28T11:33:53;102886.25;;;14.97;58.88
72370;BME280;60343;-32.030;115.880;2023-04-28T11:36:39;102885.88;;;15.10;58.08
72370;BME280;60343;-32.030;115.880;2023-04-28T11:39:14;102887.88;;;15.08;58.55
72370;BME280;60343;-32.030;115.880;2023-04-28T11:41:49;102892.19;;;15.00;58.44
72370;BME280;60343;-32.030;115.880;2023-04-28T11:44:25;102885.94;;;15.00;58.50
72370;BME280;60343;-32.030;115.880;2023-04-28T11:47:00;102890.34;;;15.01;58.85
72370;BME280;60343;-32.030;115.880;2023-04-28T11:49:43;102885.44;;;14.87;58.88
72370;BME280;60343;-32.030;115.880;2023-04-28T11:52:23;102887.63;;;14.74;59.06
72370;BME280;60343;-32.030;115.880;2023-04-28T11:54:58;102891.03;;;14.76;59.23
72370;BME280;60343;-32.030;115.880;2023-04-28T11:57:33;102897.28;;;14.76;59.54
72370;BME280;60343;-32.030;115.880;2023-04-28T12:00:14;102901.16;;;14.54;59.60
72370;BME280;60343;-32.030;115.880;2023-04-28T12:02:50;102909.72;;;14.40;60.29
72370;BME280;60343;-32.030;115.880;2023-04-28T12:05:25;102909.00;;;14.29;60.66
72370;BME280;60343;-32.030;115.880;2023-04-28T12:08:06;102909.63;;;14.23;60.81
72370;BME280;60343;-32.030;115.880;2023-04-28T12:10:41;102907.94;;;14.12;61.34
72370;BME280;60343;-32.030;115.880;2023-04-28T12:13:16;102911.50;;;14.03;61.82
72370;BME280;60343;-32.030;115.880;2023-04-28T12:15:50;102915.88;;;13.94;61.96
72370;BME280;60343;-32.030;115.880;2023-04-28T12:18:25;102914.59;;;13.79;62.04
72370;BME280;60343;-32.030;115.880;2023-04-28T12:21:00;102913.91;;;13.67;62.58
72370;BME280;60343;-32.030;115.880;2023-04-28T12:23:40;102910.78;;;13.53;63.08
72370;BME280;60343;-32.030;115.880;2023-04-28T12:26:24;102916.72;;;13.47;62.88
72370;BME280;60343;-32.030;115.880;2023-04-28T12:28:58;102915.00;;;13.46;63.08
72370;BME280;60343;-32.030;115.880;2023-04-28T12:31:33;102919.53;;;13.45;63.47
72370;BME280;60343;-32.030;115.880;2023-04-28T12:34:20;102915.69;;;13.38;64.11
72370;BME280;60343;-32.030;115.880;2023-04-28T12:36:56;102917.69;;;13.36;64.14
72370;BME280;60343;-32.030;115.880;2023-04-28T12:39:39;102925.88;;;13.25;64.45
72370;BME280;60343;-32.030;115.880;2023-04-28T12:42:14;102924.31;;;13.22;64.35
72370;BME280;60343;-32.030;115.880;2023-04-28T12:44:49;102909.59;;;13.17;64.56
72370;BME280;60343;-32.030;115.880;2023-04-28T12:47:23;102930.66;;;13.12;65.05
72370;BME280;60343;-32.030;115.880;2023-04-28T12:49:58;102923.78;;;13.08;65.21
72370;BME280;60343;-32.030;115.880;2023-04-28T12:52:32;102929.03;;;13.00;65.58
72370;BME280;60343;-32.030;115.880;2023-04-28T12:55:13;102933.25;;;12.93;65.77
72370;BME280;60343;-32.030;115.880;2023-04-28T12:57:48;102937.47;;;12.85;65.52
72370;BME280;60343;-32.030;115.880;2023-04-28T13:00:22;102935.72;;;12.75;66.04
72370;BME280;60343;-32.030;115.880;2023-04-28T13:02:57;102934.69;;;12.66;66.38
72370;BME280;60343;-32.030;115.880;2023-04-28T13:05:32;102930.94;;;12.58;66.57
72370;BME280;60343;-32.030;115.880;2023-04-28T13:08:06;102929.91;;;12.49;66.95
72370;BME280;60343;-32.030;115.880;2023-04-28T13:10:47;102934.97;;;12.42;66.92
72370;BME280;60343;-32.030;115.880;2023-04-28T13:13:22;102937.47;;;12.34;67.01